sensor_id;sensor_type;location;lat;lon;timestamp;temperature;humidity
11784;DHT22;5949;40.386;18.150;2022-08-11T00:01:50;26.40;99.90
11784;DHT22;5949;40.386;18.150;2022-08-11T00:04:21;26.50;99.90
11784;DHT22;5949;40.386;18.150;2022-08-11T00:06:50;26.40;99.90
11784;DHT22;5949;40.386;18.150;2022-08-11T00:09:22;26.40;99.90
11784;DHT22;5949;40.386;18.150;2022-08-11T00:11:58;26.40;99.90
11784;DHT22;5949;40.386;18.150;2022-08-11T00:14:32;26.40;99.90
11784;DHT22;5949;40.386;18.150;2022-08-11T00:17:02;26.40;99.90
11784;DHT22;5949;40.386;18.150;2022-08-11T00:19:32;26.40;99.90
11784;DHT22;5949;40.386;18.150;2022-08-11T00:22:00;26.40;99.90
11784;DHT22;5949;40.386;18.150;2022-08-11T00:24:34;26.40;99.90
11784;DHT22;5949;40.386;18.150;2022-08-11T00:27:04;26.40;99.90
11784;DHT22;5949;40.386;18.150;2022-08-11T00:29:32;26.40;99.90
11784;DHT22;5949;40.386;18.150;2022-08-11T00:32:02;26.40;99.90
11784;DHT22;5949;40.386;18.150;2022-08-11T00:34:33;26.40;99.90
11784;DHT22;5949;40.386;18.150;2022-08-11T00:37:06;26.30;99.90
11784;DHT22;5949;40.386;18.150;2022-08-11T00:39:45;26.30;99.90
11784;DHT22;5949;40.386;18.150;2022-08-11T00:42:18;26.40;99.90
11784;DHT22;5949;40.386;18.150;2022-08-11T00:45:00;26.30;99.90
11784;DHT22;5949;40.386;18.150;2022-08-11T00:47:41;26.40;99.90
11784;DHT22;5949;40.386;18.150;2022-08-11T00:50:17;26.40;99.90
11784;DHT22;5949;40.386;18.150;2022-08-11T00:53:02;26.40;99.90
11784;DHT22;5949;40.386;18.150;2022-08-11T01:01:53;26.30;99.90
11784;DHT22;5949;40.386;18.150;2022-08-11T01:17:04;26.20;99.90
11784;DHT22;5949;40.386;18.150;2022-08-11T01:23:04;26.10;99.90
11784;DHT22;5949;40.386;18.150;2022-08-11T01:29:31;26.20;99.90
11784;DHT22;5949;40.386;18.150;2022-08-11T01:41:41;26.10;99.90
11784;DHT22;5949;40.386;18.150;2022-08-11T01:45:01;26.10;99.90
11784;DHT22;5949;40.386;18.150;2022-08-11T01:47:35;26.10;99.90
11784;DHT22;5949;40.386;18.150;2022-08-11T01:50:39;26.10;99.90
11784;DHT22;5949;40.386;18.150;2022-08-11T01:53:23;26.10;99.90
11784;DHT22;5949;40.386;18.150;2022-08-11T01:56:04;26.00;99.90
11784;DHT22;5949;40.386;18.150;2022-08-11T01:58:42;26.10;99.90
11784;DHT22;5949;40.386;18.150;2022-08-11T02:01:33;26.10;99.90
11784;DHT22;5949;40.386;18.150;2022-08-11T02:04:13;26.10;99.90
11784;DHT22;5949;40.386;18.150;2022-08-11T02:06:49;26.10;99.90
11784;DHT22;5949;40.386;18.150;2022-08-11T02:09:52;26.10;99.90
11784;DHT22;5949;40.386;18.150;2022-08-11T02:12:40;26.10;99.90
11784;DHT22;5949;40.386;18.150;2022-08-11T02:15:14;26.10;99.90
11784;DHT22;5949;40.386;18.150;2022-08-11T02:17:52;26.10;99.90
11784;DHT22;5949;40.386;18.150;2022-08-11T02:20:26;26.10;99.90
11784;DHT22;5949;40.386;18.150;2022-08-11T02:23:22;26.10;99.90
11784;DHT22;5949;40.386;18.150;2022-08-11T02:26:13;26.10;99.90
11784;DHT22;5949;40.386;18.150;2022-08-11T02:28:50;26.10;99.90
11784;DHT22;5949;40.386;18.150;2022-08-11T02:31:26;26.10;99.90
11784;DHT22;5949;40.386;18.150;2022-08-11T02:34:19;26.00;99.90
11784;DHT22;5949;40.386;18.150;2022-08-11T02:36:55;26.00;99.90
11784;DHT22;5949;40.386;18.150;2022-08-11T02:39:28;26.00;99.90
11784;DHT22;5949;40.386;18.150;2022-08-11T02:42:07;26.00;99.90
11784;DHT22;5949;40.386;18.150;2022-08-11T02:45:01;26.00;99.90
11784;DHT22;5949;40.386;18.150;2022-08-11T02:47:38;26.10;99.90
11784;DHT22;5949;40.386;18.150;2022-08-11T02:50:14;26.00;99.90
11784;DHT22;5949;40.386;18.150;2022-08-11T02:52:52;26.10;99.90
11784;DHT22;5949;40.386;18.150;2022-08-11T02:55:29;26.10;99.90
11784;DHT22;5949;40.386;18.150;2022-08-11T02:58:09;26.00;99.90
11784;DHT22;5949;40.386;18.150;2022-08-11T03:00:46;26.00;99.90
11784;DHT22;5949;40.386;18.150;2022-08-11T03:03:22;26.00;99.90
11784;DHT22;5949;40.386;18.150;2022-08-11T03:06:01;26.00;99.90
11784;DHT22;5949;40.386;18.150;2022-08-11T03:08:45;26.00;99.90
11784;DHT22;5949;40.386;18.150;2022-08-11T03:11:25;26.00;99.90
11784;DHT22;5949;40.386;18.150;2022-08-11T03:14:21;26.10;99.90
11784;DHT22;5949;40.386;18.150;2022-08-11T03:17:20;26.00;99.90
11784;DHT22;5949;40.386;18.150;2022-08-11T03:20:02;26.00;99.90
11784;DHT22;5949;40.386;18.150;2022-08-11T03:22:35;26.00;99.90
11784;DHT22;5949;40.386;18.150;2022-08-11T03:25:11;26.00;99.90
11784;DHT22;5949;40.386;18.150;2022-08-11T03:27:48;26.00;99.90
11784;DHT22;5949;40.386;18.150;2022-08-11T03:30:22;26.00;99.90
11784;DHT22;5949;40.386;18.150;2022-08-11T03:33:01;26.00;99.90
11784;DHT22;5949;40.386;18.150;2022-08-11T03:35:56;26.00;99.90
11784;DHT22;5949;40.386;18.150;2022-08-11T03:38:34;26.00;99.90
11784;DHT22;5949;40.386;18.150;2022-08-11T03:41:20;26.00;99.90
11784;DHT22;5949;40.386;18.150;2022-08-11T03:44:16;26.00;99.90
11784;DHT22;5949;40.386;18.150;2022-08-11T03:47:02;26.00;99.90
11784;DHT22;5949;40.386;18.150;2022-08-11T03:49:39;26.00;99.90
11784;DHT22;5949;40.386;18.150;2022-08-11T03:52:17;25.90;99.90
11784;DHT22;5949;40.386;18.150;2022-08-11T03:54:56;26.00;99.90
11784;DHT22;5949;40.386;18.150;2022-08-11T03:58:12;26.00;99.90
11784;DHT22;5949;40.386;18.150;2022-08-11T04:10:31;26.00;99.90
11784;DHT22;5949;40.386;18.150;2022-08-11T04:13:30;26.00;99.90
11784;DHT22;5949;40.386;18.150;2022-08-11T04:16:14;26.00;99.90
11784;DHT22;5949;40.386;18.150;2022-08-11T04:19:04;26.10;99.90
11784;DHT22;5949;40.386;18.150;2022-08-11T04:22:21;26.10;99.90
11784;DHT22;5949;40.386;18.150;2022-08-11T04:25:19;26.10;99.90
11784;DHT22;5949;40.386;18.150;2022-08-11T04:28:12;26.10;99.90
11784;DHT22;5949;40.386;18.150;2022-08-11T04:31:07;26.10;99.90
11784;DHT22;5949;40.386;18.150;2022-08-11T04:37:01;26.20;99.90
11784;DHT22;5949;40.386;18.150;2022-08-11T04:40:05;26.20;99.90
11784;DHT22;5949;40.386;18.150;2022-08-11T04:43:18;26.20;99.90
11784;DHT22;5949;40.386;18.150;2022-08-11T04:46:20;26.20;99.90
11784;DHT22;5949;40.386;18.150;2022-08-11T04:49:38;26.30;99.90
11784;DHT22;5949;40.386;18.150;2022-08-11T04:56:08;26.30;99.90
11784;DHT22;5949;40.386;18.150;2022-08-11T05:05:36;26.60;99.90
11784;DHT22;5949;40.386;18.150;2022-08-11T05:11:32;26.80;99.90
11784;DHT22;5949;40.386;18.150;2022-08-11T05:14:26;26.90;99.90
11784;DHT22;5949;40.386;18.150;2022-08-11T05:17:14;26.70;99.90
11784;DHT22;5949;40.386;18.150;2022-08-11T05:19:59;26.80;99.90
11784;DHT22;5949;40.386;18.150;2022-08-11T05:22:49;27.00;99.90
11784;DHT22;5949;40.386;18.150;2022-08-11T05:25:36;27.30;99.90
11784;DHT22;5949;40.386;18.150;2022-08-11T05:28:31;27.30;99.90
11784;DHT22;5949;40.386;18.150;2022-08-11T05:31:21;27.30;99.90
11784;DHT22;5949;40.386;18.150;2022-08-11T05:34:10;27.60;99.90
11784;DHT22;5949;40.386;18.150;2022-08-11T05:37:01;27.80;99.90
11784;DHT22;5949;40.386;18.150;2022-08-11T05:39:37;27.90;99.90
11784;DHT22;5949;40.386;18.150;2022-08-11T05:42:24;27.90;99.90
11784;DHT22;5949;40.386;18.150;2022-08-11T05:45:12;28.10;99.90
11784;DHT22;5949;40.386;18.150;2022-08-11T05:48:01;28.40;99.90
11784;DHT22;5949;40.386;18.150;2022-08-11T05:50:51;28.50;99.90
11784;DHT22;5949;40.386;18.150;2022-08-11T05:53:49;28.70;99.90
11784;DHT22;5949;40.386;18.150;2022-08-11T05:56:43;29.10;99.90
11784;DHT22;5949;40.386;18.150;2022-08-11T05:59:16;29.20;99.90
11784;DHT22;5949;40.386;18.150;2022-08-11T06:01:45;29.10;99.90
11784;DHT22;5949;40.386;18.150;2022-08-11T06:04:18;29.40;99.90
11784;DHT22;5949;40.386;18.150;2022-08-11T06:06:52;29.80;99.90
11784;DHT22;5949;40.386;18.150;2022-08-11T06:09:26;29.50;99.90
11784;DHT22;5949;40.386;18.150;2022-08-11T06:11:57;29.30;99.90
11784;DHT22;5949;40.386;18.150;2022-08-11T06:14:26;29.20;99.90
11784;DHT22;5949;40.386;18.150;2022-08-11T06:16:57;29.40;99.90
11784;DHT22;5949;40.386;18.150;2022-08-11T06:19:35;29.40;99.90
11784;DHT22;5949;40.386;18.150;2022-08-11T06:22:06;29.50;99.90
11784;DHT22;5949;40.386;18.150;2022-08-11T06:24:36;29.70;99.90
11784;DHT22;5949;40.386;18.150;2022-08-11T06:27:06;29.50;99.90
11784;DHT22;5949;40.386;18.150;2022-08-11T06:29:35;29.90;99.90
11784;DHT22;5949;40.386;18.150;2022-08-11T06:32:10;29.90;99.90
11784;DHT22;5949;40.386;18.150;2022-08-11T06:34:54;30.20;99.90
11784;DHT22;5949;40.386;18.150;2022-08-11T06:37:34;30.10;99.90
11784;DHT22;5949;40.386;18.150;2022-08-11T06:40:10;30.10;99.90
11784;DHT22;5949;40.386;18.150;2022-08-11T06:42:48;30.30;99.90
11784;DHT22;5949;40.386;18.150;2022-08-11T06:45:27;30.50;99.90
11784;DHT22;5949;40.386;18.150;2022-08-11T06:47:55;30.90;99.90
11784;DHT22;5949;40.386;18.150;2022-08-11T06:50:28;31.00;99.90
11784;DHT22;5949;40.386;18.150;2022-08-11T06:53:17;30.80;99.90
11784;DHT22;5949;40.386;18.150;2022-08-11T06:55:46;31.20;99.90
11784;DHT22;5949;40.386;18.150;2022-08-11T06:58:35;31.10;99.90
11784;DHT22;5949;40.386;18.150;2022-08-11T07:01:30;31.30;99.90
11784;DHT22;5949;40.386;18.150;2022-08-11T07:04:05;30.90;99.90
11784;DHT22;5949;40.386;18.150;2022-08-11T07:06:45;31.50;99.90
11784;DHT22;5949;40.386;18.150;2022-08-11T07:12:57;31.20;99.90
11784;DHT22;5949;40.386;18.150;2022-08-11T07:15:45;31.50;99.90
11784;DHT22;5949;40.386;18.150;2022-08-11T07:18:20;31.10;99.90
11784;DHT22;5949;40.386;18.150;2022-08-11T07:21:10;31.30;99.90
11784;DHT22;5949;40.386;18.150;2022-08-11T07:24:00;31.70;99.90
11784;DHT22;5949;40.386;18.150;2022-08-11T07:26:50;31.50;99.90
11784;DHT22;5949;40.386;18.150;2022-08-11T07:29:36;31.70;99.90
11784;DHT22;5949;40.386;18.150;2022-08-11T07:32:15;31.60;99.90
11784;DHT22;5949;40.386;18.150;2022-08-11T07:34:51;31.40;99.90
11784;DHT22;5949;40.386;18.150;2022-08-11T07:37:23;31.80;99.90
11784;DHT22;5949;40.386;18.150;2022-08-11T07:39:54;31.80;99.90
11784;DHT22;5949;40.386;18.150;2022-08-11T07:42:27;31.80;99.90
11784;DHT22;5949;40.386;18.150;2022-08-11T07:44:56;32.10;99.90
11784;DHT22;5949;40.386;18.150;2022-08-11T07:47:42;32.00;99.90
11784;DHT22;5949;40.386;18.150;2022-08-11T07:50:29;32.00;99.90
11784;DHT22;5949;40.386;18.150;2022-08-11T07:53:14;32.10;99.90
11784;DHT22;5949;40.386;18.150;2022-08-11T07:55:47;31.50;99.90
11784;DHT22;5949;40.386;18.150;2022-08-11T07:58:16;31.20;99.90
11784;DHT22;5949;40.386;18.150;2022-08-11T08:01:01;31.20;99.10
11784;DHT22;5949;40.386;18.150;2022-08-11T08:03:46;31.90;99.90
11784;DHT22;5949;40.386;18.150;2022-08-11T08:06:32;31.90;99.90
11784;DHT22;5949;40.386;18.150;2022-08-11T08:09:19;31.80;99.90
11784;DHT22;5949;40.386;18.150;2022-08-11T08:12:07;31.80;99.90
11784;DHT22;5949;40.386;18.150;2022-08-11T08:14:53;31.70;99.90
11784;DHT22;5949;40.386;18.150;2022-08-11T08:17:40;31.90;99.90
11784;DHT22;5949;40.386;18.150;2022-08-11T08:20:20;31.90;99.90
11784;DHT22;5949;40.386;18.150;2022-08-11T08:22:50;31.40;99.90
11784;DHT22;5949;40.386;18.150;2022-08-11T08:25:23;31.40;99.90
11784;DHT22;5949;40.386;18.150;2022-08-11T08:27:54;31.20;99.90
11784;DHT22;5949;40.386;18.150;2022-08-11T08:30:24;31.30;99.90
11784;DHT22;5949;40.386;18.150;2022-08-11T08:33:11;31.50;99.90
11784;DHT22;5949;40.386;18.150;2022-08-11T08:35:40;31.80;99.90
11784;DHT22;5949;40.386;18.150;2022-08-11T08:38:09;32.10;99.90
11784;DHT22;5949;40.386;18.150;2022-08-11T08:40:41;31.50;99.90
11784;DHT22;5949;40.386;18.150;2022-08-11T08:43:12;31.40;99.90
11784;DHT22;5949;40.386;18.150;2022-08-11T08:45:43;31.90;99.90
11784;DHT22;5949;40.386;18.150;2022-08-11T08:48:13;31.80;99.90
11784;DHT22;5949;40.386;18.150;2022-08-11T08:50:48;31.50;99.90
11784;DHT22;5949;40.386;18.150;2022-08-11T08:53:35;31.50;99.90
11784;DHT22;5949;40.386;18.150;2022-08-11T08:56:06;31.30;99.90
11784;DHT22;5949;40.386;18.150;2022-08-11T08:58:38;31.30;99.90
11784;DHT22;5949;40.386;18.150;2022-08-11T09:01:09;31.20;99.90
11784;DHT22;5949;40.386;18.150;2022-08-11T09:03:38;31.40;99.90
11784;DHT22;5949;40.386;18.150;2022-08-11T09:06:06;31.50;99.90
11784;DHT22;5949;40.386;18.150;2022-08-11T09:08:34;31.50;99.90
11784;DHT22;5949;40.386;18.150;2022-08-11T09:11:03;31.60;99.90
11784;DHT22;5949;40.386;18.150;2022-08-11T09:13:51;32.10;99.90
11784;DHT22;5949;40.386;18.150;2022-08-11T09:16:19;32.40;99.30
11784;DHT22;5949;40.386;18.150;2022-08-11T09:18:49;32.10;99.90
11784;DHT22;5949;40.386;18.150;2022-08-11T09:21:18;32.30;99.80
11784;DHT22;5949;40.386;18.150;2022-08-11T09:23:48;32.00;99.90
11784;DHT22;5949;40.386;18.150;2022-08-11T09:26:34;32.00;99.90
11784;DHT22;5949;40.386;18.150;2022-08-11T09:29:22;31.70;99.90
11784;DHT22;5949;40.386;18.150;2022-08-11T09:31:51;32.10;99.00
11784;DHT22;5949;40.386;18.150;2022-08-11T09:34:19;31.90;99.40
11784;DHT22;5949;40.386;18.150;2022-08-11T09:36:48;32.10;99.90
11784;DHT22;5949;40.386;18.150;2022-08-11T09:39:36;32.10;99.90
11784;DHT22;5949;40.386;18.150;2022-08-11T09:42:22;31.80;99.90
11784;DHT22;5949;40.386;18.150;2022-08-11T09:45:12;31.80;99.90
11784;DHT22;5949;40.386;18.150;2022-08-11T09:47:42;31.80;99.90
11784;DHT22;5949;40.386;18.150;2022-08-11T09:50:10;31.50;99.90
11784;DHT22;5949;40.386;18.150;2022-08-11T09:52:39;31.80;99.90
11784;DHT22;5949;40.386;18.150;2022-08-11T09:55:07;31.80;99.90
11784;DHT22;5949;40.386;18.150;2022-08-11T09:57:39;31.60;99.40
11784;DHT22;5949;40.386;18.150;2022-08-11T10:00:30;31.90;99.10
11784;DHT22;5949;40.386;18.150;2022-08-11T10:02:58;32.00;99.70
11784;DHT22;5949;40.386;18.150;2022-08-11T10:05:28;31.70;99.20
11784;DHT22;5949;40.386;18.150;2022-08-11T10:08:17;31.90;99.80
11784;DHT22;5949;40.386;18.150;2022-08-11T10:10:45;31.80;99.90
11784;DHT22;5949;40.386;18.150;2022-08-11T10:13:16;31.60;98.60
11784;DHT22;5949;40.386;18.150;2022-08-11T10:15:48;31.70;98.80
11784;DHT22;5949;40.386;18.150;2022-08-11T10:18:17;31.90;99.10
11784;DHT22;5949;40.386;18.150;2022-08-11T10:21:08;31.70;99.90
11784;DHT22;5949;40.386;18.150;2022-08-11T10:23:37;31.90;99.90
11784;DHT22;5949;40.386;18.150;2022-08-11T10:26:23;32.20;99.10
11784;DHT22;5949;40.386;18.150;2022-08-11T10:29:10;32.10;99.20
11784;DHT22;5949;40.386;18.150;2022-08-11T10:31:54;31.80;99.00
11784;DHT22;5949;40.386;18.150;2022-08-11T10:34:39;31.70;98.10
11784;DHT22;5949;40.386;18.150;2022-08-11T10:37:08;31.60;99.90
11784;DHT22;5949;40.386;18.150;2022-08-11T10:39:38;31.30;99.90
11784;DHT22;5949;40.386;18.150;2022-08-11T10:42:07;31.40;99.90
11784;DHT22;5949;40.386;18.150;2022-08-11T10:44:54;31.30;99.90
11784;DHT22;5949;40.386;18.150;2022-08-11T10:47:25;31.50;99.90
11784;DHT22;5949;40.386;18.150;2022-08-11T10:50:00;31.30;99.90
11784;DHT22;5949;40.386;18.150;2022-08-11T10:52:47;31.80;99.90
11784;DHT22;5949;40.386;18.150;2022-08-11T10:55:33;32.10;99.90
11784;DHT22;5949;40.386;18.150;2022-08-11T10:58:20;31.90;99.90
11784;DHT22;5949;40.386;18.150;2022-08-11T11:01:06;31.60;99.90
11784;DHT22;5949;40.386;18.150;2022-08-11T11:03:36;31.50;99.10
11784;DHT22;5949;40.386;18.150;2022-08-11T11:06:07;31.30;99.90
11784;DHT22;5949;40.386;18.150;2022-08-11T11:08:43;31.20;99.90
11784;DHT22;5949;40.386;18.150;2022-08-11T11:11:22;31.00;99.90
11784;DHT22;5949;40.386;18.150;2022-08-11T11:14:11;31.20;99.10
11784;DHT22;5949;40.386;18.150;2022-08-11T11:16:57;30.90;99.90
11784;DHT22;5949;40.386;18.150;2022-08-11T11:19:44;31.30;99.90
11784;DHT22;5949;40.386;18.150;2022-08-11T11:22:14;31.30;99.50
11784;DHT22;5949;40.386;18.150;2022-08-11T11:25:06;30.90;99.90
11784;DHT22;5949;40.386;18.150;2022-08-11T11:27:46;31.00;99.90
11784;DHT22;5949;40.386;18.150;2022-08-11T11:30:16;30.80;99.90
11784;DHT22;5949;40.386;18.150;2022-08-11T11:32:51;30.70;99.90
11784;DHT22;5949;40.386;18.150;2022-08-11T11:35:46;30.60;99.90
11784;DHT22;5949;40.386;18.150;2022-08-11T11:38:16;30.80;99.90
11784;DHT22;5949;40.386;18.150;2022-08-11T11:40:44;30.80;99.90
11784;DHT22;5949;40.386;18.150;2022-08-11T11:43:34;30.80;99.90
11784;DHT22;5949;40.386;18.150;2022-08-11T11:46:04;30.80;99.90
11784;DHT22;5949;40.386;18.150;2022-08-11T11:48:33;30.60;99.90
11784;DHT22;5949;40.386;18.150;2022-08-11T11:51:03;30.90;99.90
11784;DHT22;5949;40.386;18.150;2022-08-11T11:53:31;30.60;99.30
11784;DHT22;5949;40.386;18.150;2022-08-11T11:55:59;30.80;98.90
11784;DHT22;5949;40.386;18.150;2022-08-11T11:58:28;31.10;99.20
11784;DHT22;5949;40.386;18.150;2022-08-11T12:01:19;31.10;99.70
11784;DHT22;5949;40.386;18.150;2022-08-11T12:03:52;31.00;99.90
11784;DHT22;5949;40.386;18.150;2022-08-11T12:06:22;30.90;99.20
11784;DHT22;5949;40.386;18.150;2022-08-11T12:08:54;30.60;98.80
11784;DHT22;5949;40.386;18.150;2022-08-11T12:11:23;30.50;99.90
11784;DHT22;5949;40.386;18.150;2022-08-11T12:14:09;30.60;99.90
11784;DHT22;5949;40.386;18.150;2022-08-11T12:16:39;30.60;99.90
11784;DHT22;5949;40.386;18.150;2022-08-11T12:19:09;30.60;99.50
11784;DHT22;5949;40.386;18.150;2022-08-11T12:21:39;30.80;98.50
11784;DHT22;5949;40.386;18.150;2022-08-11T12:24:30;30.80;98.70
11784;DHT22;5949;40.386;18.150;2022-08-11T12:27:15;30.90;99.10
11784;DHT22;5949;40.386;18.150;2022-08-11T12:29:50;30.90;97.90
11784;DHT22;5949;40.386;18.150;2022-08-11T12:32:20;31.00;97.10
11784;DHT22;5949;40.386;18.150;2022-08-11T12:34:48;30.90;95.40
11784;DHT22;5949;40.386;18.150;2022-08-11T12:37:20;31.10;96.20
11784;DHT22;5949;40.386;18.150;2022-08-11T12:39:52;30.80;97.10
11784;DHT22;5949;40.386;18.150;2022-08-11T12:42:43;31.00;96.00
11784;DHT22;5949;40.386;18.150;2022-08-11T12:45:29;31.10;96.30
11784;DHT22;5949;40.386;18.150;2022-08-11T12:48:06;30.80;96.40
11784;DHT22;5949;40.386;18.150;2022-08-11T12:50:55;30.80;96.30
11784;DHT22;5949;40.386;18.150;2022-08-11T12:53:51;30.90;97.10
11784;DHT22;5949;40.386;18.150;2022-08-11T12:56:20;30.80;96.10
11784;DHT22;5949;40.386;18.150;2022-08-11T12:59:07;30.90;96.10
11784;DHT22;5949;40.386;18.150;2022-08-11T13:01:53;30.70;97.10
11784;DHT22;5949;40.386;18.150;2022-08-11T13:04:40;30.50;95.70
11784;DHT22;5949;40.386;18.150;2022-08-11T13:07:21;30.50;95.40
11784;DHT22;5949;40.386;18.150;2022-08-11T13:09:51;30.40;94.50
11784;DHT22;5949;40.386;18.150;2022-08-11T13:12:20;30.60;94.00
11784;DHT22;5949;40.386;18.150;2022-08-11T13:15:08;30.60;95.30
11784;DHT22;5949;40.386;18.150;2022-08-11T13:17:37;30.60;95.20
11784;DHT22;5949;40.386;18.150;2022-08-11T13:20:07;30.50;95.50
11784;DHT22;5949;40.386;18.150;2022-08-11T13:22:36;30.40;96.80
11784;DHT22;5949;40.386;18.150;2022-08-11T13:25:07;30.30;95.50
11784;DHT22;5949;40.386;18.150;2022-08-11T13:27:35;30.30;94.70
11784;DHT22;5949;40.386;18.150;2022-08-11T13:30:04;30.40;96.00
11784;DHT22;5949;40.386;18.150;2022-08-11T13:32:49;30.60;94.40
11784;DHT22;5949;40.386;18.150;2022-08-11T13:35:18;30.60;95.70
11784;DHT22;5949;40.386;18.150;2022-08-11T13:37:46;30.60;96.70
11784;DHT22;5949;40.386;18.150;2022-08-11T13:40:19;30.60;96.50
11784;DHT22;5949;40.386;18.150;2022-08-11T13:42:48;30.50;97.90
11784;DHT22;5949;40.386;18.150;2022-08-11T13:45:17;30.40;99.90
11784;DHT22;5949;40.386;18.150;2022-08-11T13:47:46;30.40;97.80
11784;DHT22;5949;40.386;18.150;2022-08-11T13:50:15;30.40;99.90
11784;DHT22;5949;40.386;18.150;2022-08-11T13:52:43;30.40;99.90
11784;DHT22;5949;40.386;18.150;2022-08-11T13:55:15;30.30;99.90
11784;DHT22;5949;40.386;18.150;2022-08-11T13:57:50;30.30;99.90
11784;DHT22;5949;40.386;18.150;2022-08-11T14:00:19;30.20;99.90
11784;DHT22;5949;40.386;18.150;2022-08-11T14:02:48;30.50;99.90
11784;DHT22;5949;40.386;18.150;2022-08-11T14:05:21;30.40;99.90
11784;DHT22;5949;40.386;18.150;2022-08-11T14:07:51;30.40;99.90
11784;DHT22;5949;40.386;18.150;2022-08-11T14:10:23;30.20;99.90
11784;DHT22;5949;40.386;18.150;2022-08-11T14:12:57;30.30;99.90
11784;DHT22;5949;40.386;18.150;2022-08-11T14:15:44;30.10;99.90
11784;DHT22;5949;40.386;18.150;2022-08-11T14:18:17;30.30;99.90
11784;DHT22;5949;40.386;18.150;2022-08-11T14:20:48;30.30;99.90
11784;DHT22;5949;40.386;18.150;2022-08-11T14:23:37;30.20;99.90
11784;DHT22;5949;40.386;18.150;2022-08-11T14:26:08;30.10;99.90
11784;DHT22;5949;40.386;18.150;2022-08-11T14:28:58;30.10;99.90
11784;DHT22;5949;40.386;18.150;2022-08-11T14:31:29;30.20;99.90
11784;DHT22;5949;40.386;18.150;2022-08-11T14:34:01;30.30;99.90
11784;DHT22;5949;40.386;18.150;2022-08-11T14:36:33;30.40;99.90
11784;DHT22;5949;40.386;18.150;2022-08-11T14:39:05;30.30;99.90
11784;DHT22;5949;40.386;18.150;2022-08-11T14:41:35;30.20;99.90
11784;DHT22;5949;40.386;18.150;2022-08-11T14:44:20;30.20;99.90
11784;DHT22;5949;40.386;18.150;2022-08-11T14:47:06;30.20;99.90
11784;DHT22;5949;40.386;18.150;2022-08-11T14:49:35;30.20;99.90
11784;DHT22;5949;40.386;18.150;2022-08-11T14:52:05;30.10;99.90
11784;DHT22;5949;40.386;18.150;2022-08-11T14:54:34;30.30;99.90
11784;DHT22;5949;40.386;18.150;2022-08-11T14:57:22;30.00;99.90
11784;DHT22;5949;40.386;18.150;2022-08-11T14:59:50;29.90;99.90
11784;DHT22;5949;40.386;18.150;2022-08-11T15:02:19;29.80;99.90
11784;DHT22;5949;40.386;18.150;2022-08-11T15:05:07;30.10;99.90
11784;DHT22;5949;40.386;18.150;2022-08-11T15:07:35;29.90;99.90
11784;DHT22;5949;40.386;18.150;2022-08-11T15:10:05;30.00;99.90
11784;DHT22;5949;40.386;18.150;2022-08-11T15:12:37;30.00;99.90
11784;DHT22;5949;40.386;18.150;2022-08-11T15:15:08;30.00;99.90
11784;DHT22;5949;40.386;18.150;2022-08-11T15:17:54;29.90;99.90
11784;DHT22;5949;40.386;18.150;2022-08-11T15:20:25;29.90;99.90
11784;DHT22;5949;40.386;18.150;2022-08-11T15:23:10;30.00;99.90
11784;DHT22;5949;40.386;18.150;2022-08-11T15:25:58;29.80;99.90
11784;DHT22;5949;40.386;18.150;2022-08-11T15:28:30;29.90;99.90
11784;DHT22;5949;40.386;18.150;2022-08-11T15:31:16;29.90;99.90
11784;DHT22;5949;40.386;18.150;2022-08-11T15:34:04;29.90;99.90
11784;DHT22;5949;40.386;18.150;2022-08-11T15:36:52;29.70;99.90
11784;DHT22;5949;40.386;18.150;2022-08-11T15:39:48;29.50;99.90
11784;DHT22;5949;40.386;18.150;2022-08-11T15:42:36;29.60;99.90
11784;DHT22;5949;40.386;18.150;2022-08-11T15:45:24;29.60;99.90
11784;DHT22;5949;40.386;18.150;2022-08-11T15:48:11;29.50;99.90
11784;DHT22;5949;40.386;18.150;2022-08-11T15:50:45;29.50;99.90
11784;DHT22;5949;40.386;18.150;2022-08-11T15:53:19;29.40;99.90
11784;DHT22;5949;40.386;18.150;2022-08-11T15:55:51;29.50;99.90
11784;DHT22;5949;40.386;18.150;2022-08-11T15:58:19;29.40;99.90
11784;DHT22;5949;40.386;18.150;2022-08-11T16:01:07;29.50;99.90
11784;DHT22;5949;40.386;18.150;2022-08-11T16:03:56;29.40;99.90
11784;DHT22;5949;40.386;18.150;2022-08-11T16:06:51;29.40;99.90
11784;DHT22;5949;40.386;18.150;2022-08-11T16:09:26;29.40;99.90
11784;DHT22;5949;40.386;18.150;2022-08-11T16:11:58;29.30;99.90
11784;DHT22;5949;40.386;18.150;2022-08-11T16:14:28;29.20;99.90
11784;DHT22;5949;40.386;18.150;2022-08-11T16:17:18;29.20;99.90
11784;DHT22;5949;40.386;18.150;2022-08-11T16:19:50;29.10;99.90
11784;DHT22;5949;40.386;18.150;2022-08-11T16:22:22;29.10;99.90
11784;DHT22;5949;40.386;18.150;2022-08-11T16:25:00;29.10;99.90
11784;DHT22;5949;40.386;18.150;2022-08-11T16:27:31;29.10;99.90
11784;DHT22;5949;40.386;18.150;2022-08-11T16:30:01;28.90;99.90
11784;DHT22;5949;40.386;18.150;2022-08-11T16:32:34;28.90;99.90
11784;DHT22;5949;40.386;18.150;2022-08-11T16:35:05;29.00;99.90
11784;DHT22;5949;40.386;18.150;2022-08-11T16:37:51;29.10;99.90
11784;DHT22;5949;40.386;18.150;2022-08-11T16:40:37;29.00;99.90
11784;DHT22;5949;40.386;18.150;2022-08-11T16:43:08;29.00;99.90
11784;DHT22;5949;40.386;18.150;2022-08-11T16:45:54;28.90;99.90
11784;DHT22;5949;40.386;18.150;2022-08-11T16:48:41;28.90;99.90
11784;DHT22;5949;40.386;18.150;2022-08-11T16:51:11;28.90;99.90
11784;DHT22;5949;40.386;18.150;2022-08-11T16:53:39;28.90;99.90
11784;DHT22;5949;40.386;18.150;2022-08-11T16:56:11;28.90;99.90
11784;DHT22;5949;40.386;18.150;2022-08-11T16:58:43;28.80;99.90
11784;DHT22;5949;40.386;18.150;2022-08-11T17:01:32;28.90;99.90
11784;DHT22;5949;40.386;18.150;2022-08-11T17:04:06;28.90;99.90
11784;DHT22;5949;40.386;18.150;2022-08-11T17:06:51;28.90;99.90
11784;DHT22;5949;40.386;18.150;2022-08-11T17:09:37;28.80;99.90
11784;DHT22;5949;40.386;18.150;2022-08-11T17:12:28;28.70;99.90
11784;DHT22;5949;40.386;18.150;2022-08-11T17:15:16;28.90;99.90
11784;DHT22;5949;40.386;18.150;2022-08-11T17:18:13;28.80;99.90
11784;DHT22;5949;40.386;18.150;2022-08-11T17:21:04;28.80;99.90
11784;DHT22;5949;40.386;18.150;2022-08-11T17:23:34;28.70;99.90
11784;DHT22;5949;40.386;18.150;2022-08-11T17:26:21;28.90;99.90
11784;DHT22;5949;40.386;18.150;2022-08-11T17:28:53;28.70;99.90
11784;DHT22;5949;40.386;18.150;2022-08-11T17:31:23;28.60;99.90
11784;DHT22;5949;40.386;18.150;2022-08-11T17:34:08;28.60;99.90
11784;DHT22;5949;40.386;18.150;2022-08-11T17:36:56;28.40;99.90
11784;DHT22;5949;40.386;18.150;2022-08-11T17:39:27;28.50;99.90
11784;DHT22;5949;40.386;18.150;2022-08-11T17:41:56;28.40;99.90
11784;DHT22;5949;40.386;18.150;2022-08-11T17:44:41;28.50;99.90
11784;DHT22;5949;40.386;18.150;2022-08-11T17:47:28;28.60;99.90
11784;DHT22;5949;40.386;18.150;2022-08-11T17:50:13;28.50;99.90